| ตารางข้อมูล | ค้นข้อมูล1 | ค้นข้อมูล2 | ค่าสูงสุด-ต่ำสุด |  

Select Sensor -->| 20401 | 20402 | 20404 | 4529D | 814 | หน้าจอย่อ | 4529 |
ข้อมูลรวม (ยังไม่ได้เลือกรายการ)

IDDateRoom  Temp  Humidity
 328202  2024-04-22 11:04:58  20401  30.5  46.9 
 328201  2024-04-22 11:04:10  20404  29.5  48.2 
 328200  2024-04-22 11:03:22  20402  31.2  51.5 
 328199  2024-04-22 11:02:03  814  31.4  91.2 
 328198  2024-04-22 11:01:59  4529D  31.0  70.6 
 328197  2024-04-22 10:55:19  20401  30.4  46.3 
 328196  2024-04-22 10:54:00  20404  29.7  50.4 
 328195  2024-04-22 10:53:12  20402  31.1  51.3 
 328194  2024-04-22 10:45:41  20401  30.2  45.4 
 328193  2024-04-22 10:43:50  20404  30.0  52.9 
 328192  2024-04-22 10:43:09  814  31.4  91.2 
 328191  2024-04-22 10:43:02  20402  31.1  50.7 
 328190  2024-04-22 10:42:57  4529D  31.1  70.4 
 328189  2024-04-22 10:36:03  20401  29.8  45.2 
 328188  2024-04-22 10:33:40  20404  30.2  56.0 
 328187  2024-04-22 10:32:52  20402  31.0  50.4 
 328186  2024-04-22 10:26:25  20401  29.3  45.0 
 328185  2024-04-22 10:24:16  814  31.3  91.2 
 328184  2024-04-22 10:23:54  4529D  30.9  71.0 
 328183  2024-04-22 10:23:31  20404  30.2  56.0 
 328182  2024-04-22 10:22:44  20402  30.9  50.2 
 328181  2024-04-22 10:16:46  20401  28.2  45.7 
 328180  2024-04-22 10:13:19  20404  32.0  60.4 
 328179  2024-04-22 10:12:34  20402  30.9  49.4 
 328178  2024-04-22 10:07:06  20401  27.2  46.8 
 328177  2024-04-22 10:05:22  814  31.3  91.2 
 328176  2024-04-22 10:04:51  4529D  30.8  71.2 
 328175  2024-04-22 10:03:09  20404  32.0  60.2 
 328174  2024-04-22 10:02:24  20402  30.7  49.3 
 328173  2024-04-22 09:57:28  20401  27.4  47.5 
 328172  2024-04-22 09:52:59  20404  32.0  60.3 
 328171  2024-04-22 09:52:15  20402  30.6  48.9 
 328170  2024-04-22 09:47:51  20401  27.7  48.8 
 328169  2024-04-22 09:46:29  814  31.3  91.2 
 328168  2024-04-22 09:45:52  4529D  30.8  71.0 
 328167  2024-04-22 09:42:49  20404  32.0  60.1 
 328166  2024-04-22 09:42:05  20402  30.5  47.4 
 328165  2024-04-22 09:38:14  20401  28.0  50.5 
 328164  2024-04-22 09:32:39  20404  32.0  60.2 
 328163  2024-04-22 09:31:55  20402  30.4  47.4 
 328162  2024-04-22 09:28:37  20401  28.5  52.9 
 328161  2024-04-22 09:27:35  814  31.3  91.1 
 328160  2024-04-22 09:26:47  4529D  30.6  71.7 
 328159  2024-04-22 09:22:29  20404  32.0  60.1 
 328158  2024-04-22 09:21:43  20402  29.6  46.8 
 328157  2024-04-22 09:19:00  20401  29.6  56.0 
 328156  2024-04-22 09:12:19  20404  31.9  60.2 
 328155  2024-04-22 09:11:34  20402  28.2  48.0 
 328154  2024-04-22 09:09:25  20401  31.0  56.0 
 328153  2024-04-22 09:08:45  814  31.3  91.3 
 328152  2024-04-22 09:07:46  4529D  30.7  71.7 
 328151  2024-04-22 09:02:10  20404  31.9  60.1 
 328150  2024-04-22 09:01:25  20402  28.4  49.2 
 328149  2024-04-22 08:59:49  20401  31.0  56.2 
 328148  2024-04-22 08:52:00  20404  32.0  60.0 
 328147  2024-04-22 08:51:15  20402  28.8  51.3 
 328146  2024-04-22 08:50:11  20401  31.0  56.3 
 328145  2024-04-22 08:49:50  814  31.4  91.1 
 328144  2024-04-22 08:48:43  4529D  30.6  71.7 
 328143  2024-04-22 08:41:49  20404  31.9  60.3 
 328142  2024-04-22 08:41:05  20402  29.2  54.7 
 328141  2024-04-22 08:40:33  20401  31.0  56.5 
 328140  2024-04-22 08:31:41  20404  31.9  60.3 
 328139  2024-04-22 08:30:57  20402  30.0  59.9 
 328138  2024-04-22 08:30:57  814  31.4  91.0 
 328137  2024-04-22 08:30:55  20401  31.0  56.7 
 328136  2024-04-22 08:29:39  4529D  30.5  71.7 
 328135  2024-04-22 08:21:30  20404  31.8  60.2 
 328134  2024-04-22 08:21:17  20401  31.0  56.6 
 328133  2024-04-22 08:20:47  20402  31.2  62.2 
 328132  2024-04-22 08:12:05  814  31.4  91.0 
 328131  2024-04-22 08:11:40  20401  31.0  56.5 
 328130  2024-04-22 08:11:20  20404  31.8  60.2 
 328129  2024-04-22 08:10:38  4529D  30.5  71.6 
 328128  2024-04-22 08:10:37  20402  31.2  62.3 
 328127  2024-04-22 08:02:04  20401  30.9  56.6 
 328126  2024-04-22 08:01:08  20404  31.9  59.8 
 328125  2024-04-22 08:00:27  20402  31.3  61.8 
 328124  2024-04-22 07:53:14  814  31.4  91.0 
 328123  2024-04-22 07:52:25  20401  30.9  56.4 
 328122  2024-04-22 07:51:35  4529D  30.4  71.7 
 328121  2024-04-22 07:50:58  20404  31.8  60.4 
 328120  2024-04-22 07:50:17  20402  31.3  61.9 
 328119  2024-04-22 07:42:44  20401  30.9  56.4 
 328118  2024-04-22 07:40:50  20404  31.6  60.5 
 328117  2024-04-22 07:40:08  20402  31.2  61.9 
 328116  2024-04-22 07:34:20  814  31.4  91.1 
 328115  2024-04-22 07:33:07  20401  30.9  56.4 
 328114  2024-04-22 07:32:32  4529D  30.3  71.2 
 328113  2024-04-22 07:30:01  20402  31.2  61.9 
 328112  2024-04-22 07:23:29  20401  30.9  56.4 
 328111  2024-04-22 07:20:29  20404  31.5  61.6 
 328110  2024-04-22 07:19:49  20402  31.2  61.4 
 328109  2024-04-22 07:15:27  814  31.4  91.1 
 328108  2024-04-22 07:13:51  20401  30.9  56.5 
 328107  2024-04-22 07:13:31  4529D  30.3  70.5 
 328106  2024-04-22 07:10:18  20404  31.5  61.4 
 328105  2024-04-22 07:09:39  20402  31.2  61.4 
 328104  2024-04-22 07:04:13  20401  30.9  56.4 
 328103  2024-04-22 07:00:08  20404  31.6  61.1 
 328102  2024-04-22 06:59:27  20402  31.2  61.6 
 328101  2024-04-22 06:56:34  814  31.5  91.1 
 328100  2024-04-22 06:54:35  20401  30.9  56.4 
 328099  2024-04-22 06:54:28  4529D  30.4  70.5 
 328098  2024-04-22 06:49:58  20404  31.5  61.1 
 328097  2024-04-22 06:49:18  20402  31.2  61.6 
 328096  2024-04-22 06:44:57  20401  30.9  56.4 
 328095  2024-04-22 06:39:47  20404  31.5  61.3 
 328094  2024-04-22 06:39:09  20402  31.2  61.5 
 328093  2024-04-22 06:37:41  814  31.5  91.1 
 328092  2024-04-22 06:35:29  4529D  30.4  70.3 
 328091  2024-04-22 06:35:19  20401  30.9  56.4 
 328090  2024-04-22 06:29:34  20404  31.5  61.0 
 328089  2024-04-22 06:28:57  20402  31.2  61.4 
 328088  2024-04-22 06:25:41  20401  30.9  56.4 
 328087  2024-04-22 06:19:25  20404  31.5  61.0 
 328086  2024-04-22 06:18:48  814  31.5  91.1 
 328085  2024-04-22 06:18:48  20402  31.2  61.4 
 328084  2024-04-22 06:16:24  4529D  30.5  70.1 
 328083  2024-04-22 06:16:04  20401  30.9  56.4 
 328082  2024-04-22 06:09:15  20404  31.6  60.8 
 328081  2024-04-22 06:08:36  20402  31.3  61.3 
 328080  2024-04-22 06:06:26  20401  30.9  56.5 
 328079  2024-04-22 05:59:58  814  31.5  91.1 
 328078  2024-04-22 05:59:05  20404  31.6  61.3 
 328077  2024-04-22 05:58:26  20402  31.3  61.6 
 328076  2024-04-22 05:57:20  4529D  30.5  70.2 
 328075  2024-04-22 05:56:48  20401  30.9  56.5 
 328074  2024-04-22 05:48:56  20404  31.5  61.1 
 328073  2024-04-22 05:48:18  20402  31.3  61.8 
 328072  2024-04-22 05:47:11  20401  30.9  56.4 
 328071  2024-04-22 05:41:05  814  31.5  91.1 
 328070  2024-04-22 05:38:47  20404  31.6  61.2 
 328069  2024-04-22 05:38:19  4529D  30.6  70.1 
 328068  2024-04-22 05:38:09  20402  31.3  62.0 
 328067  2024-04-22 05:37:33  20401  30.9  56.5 
 328066  2024-04-22 05:28:37  20404  31.5  61.6 
 328065  2024-04-22 05:27:59  20402  31.3  61.9 
 328064  2024-04-22 05:27:56  20401  30.9  56.5 
 328063  2024-04-22 05:22:12  814  31.5  91.1 
 328062  2024-04-22 05:19:17  4529D  30.8  70.2 
 328061  2024-04-22 05:18:27  20404  31.5  61.6 
 328060  2024-04-22 05:18:18  20401  30.9  56.4 
 328059  2024-04-22 05:17:47  20402  31.2  62.1 

Data every 20 minute.